Etusivu
METAR-TAF:

METAR-TAF

Lentoasemat :

Peer, Belgia

Leveyspiiri: 51-10N, Pituuspiiri: 005-28E, korkeus merenpinnasta: 55 m

Tämänhetkinen sää

Tämä raportti tehtiin 39 minuuttia sitten, kello 04.55 UTC
Tuuli 2 kn eri suunnista
Lämpötila 0°C
Kosteus 74%
Ilmanpaine 1036 hPa
Näkyvyys 10 km tai enemmän

METAR: EBBL 240455Z AUTO VRB02KT 9999 NCD 00/M04 Q1036 BLU

Aika: 06:34 (05:34 UTC)


TAF: puuttuu

Säähavainnot ja -ennusteet yli 4000 lentoasemalta (METAR- ja TAF-raportit).

Käytössä olevat sääasemat on merkitty karttaan keltaisilla ja punaisilla pisteillä.

Aseta hiiri pisteen päälle nähdäksesi sääaseman nimen.

Klikkaa sitten nähdäksesi säähavainnot ja -ennusteet.

Kartan vaihtaminen: klikkaa mustalla rastilla varustettuja vihreitä pisteitä, niin voit zoomata sisään; viivalla varustettua vihreää pistettä, niin voit zoomata ulos tai vihreitä nuolia, niin pääset viereisille kartoille.


METAR-TAF: